Cherrycreek, Mississippi
Current Conditions -  °F | °C
As of 11:53 PM on Friday 28 Nov 2014 (Local Time) from KTUP Reporting Station
Clear Clear  
Wind Chill:   Ceiling: Unl
Heat Index:   Visibility: 10mi
Dew Point: -3°   Wind: 8mph
Humidity: 62%   Direction: 200°SSW
Pressure: 30.17"   Gusts: NA
Location:  34.4333°N, 88.8629°W
Report Text: KTUP 290553Z AUTO 20007KT 10SM CLR 04/M03 A3017 RMK AO2 SLP217 T00391028 10072 20039 401111039 56009 $
Loading
Personal Weather Stations






























Interactive Weather Map New forecast layout! Learn more

10-Day Weather Forecast

Advertisements
Track Severe Weather on mobile